Time;durP1;ratioP1;P1;durP2;ratioP2;P2;SDS_P1;SDS_P2;PMS_P1;PMS_P2;Temp;Humidity;BMP_temperature;BMP_pressure;BME280_temperature;BME280_humidity;BME280_pressure;Samples;Min_cycle;Max_cycle;Signal;HPM_P1;HPM_P2
2023/01/01 00:02:07;;;;;;;10.00;7.20;;;;;;;;;;5035341;28;20095;-89
2023/01/01 00:04:35;;;;;;;7.43;6.82;;;;;;;;;;5035264;28;20175;-89
2023/01/01 00:07:02;;;;;;;7.55;7.05;;;;;;;;;;5034947;28;20518;-89
2023/01/01 00:12:12;;;;;;;4.82;4.53;;;;;;;;;;5035206;28;20060;-90
2023/01/01 00:14:41;;;;;;;0.82;0.82;;;;;;;;;;5034703;28;20045;-89
2023/01/01 00:17:08;;;;;;;5.40;4.90;;;;;;;;;;5034890;28;20041;-89
2023/01/01 00:19:36;;;;;;;5.43;3.88;;;;;;;;;;5034889;28;20049;-89
2023/01/01 00:22:02;;;;;;;5.45;2.60;;;;;;;;;;5034891;28;20115;-90
2023/01/01 00:24:29;;;;;;;4.75;4.38;;;;;;;;;;5034580;28;20545;-89
2023/01/01 00:26:55;;;;;;;1.30;1.25;;;;;;;;;;5034760;28;20107;-90
2023/01/01 00:29:21;;;;;;;4.65;2.92;;;;;;;;;;5034635;28;20491;-89
2023/01/01 00:31:48;;;;;;;4.78;4.38;;;;;;;;;;5034795;28;20115;-90
2023/01/01 00:34:15;;;;;;;2.22;2.03;;;;;;;;;;5034786;28;20053;-89
2023/01/01 00:36:42;;;;;;;4.00;3.58;;;;;;;;;;5034451;28;20095;-90
2023/01/01 00:39:09;;;;;;;4.05;3.70;;;;;;;;;;5034192;28;20049;-89
2023/01/01 00:41:35;;;;;;;5.72;3.90;;;;;;;;;;5034347;28;20457;-89
2023/01/01 00:44:02;;;;;;;2.28;2.15;;;;;;;;;;5034175;28;20104;-89
2023/01/01 00:46:28;;;;;;;2.78;2.58;;;;;;;;;;5034030;28;20494;-90
2023/01/01 00:48:55;;;;;;;5.28;4.88;;;;;;;;;;5034062;28;20049;-90
2023/01/01 00:51:21;;;;;;;3.55;3.28;;;;;;;;;;5034263;28;20045;-89
2023/01/01 00:53:49;;;;;;;6.03;5.45;;;;;;;;;;5034155;28;20050;-89
2023/01/01 00:56:16;;;;;;;6.82;3.30;;;;;;;;;;5034494;28;20050;-90
2023/01/01 00:58:43;;;;;;;3.33;3.03;;;;;;;;;;5034243;28;20099;-90
2023/01/01 01:01:10;;;;;;;3.00;2.80;;;;;;;;;;5034104;28;20085;-90
2023/01/01 01:03:37;;;;;;;3.40;3.22;;;;;;;;;;5033683;28;20049;-90
2023/01/01 01:06:08;;;;;;;3.55;3.35;;;;;;;;;;5033668;28;20084;-90
2023/01/01 01:08:36;;;;;;;3.13;2.83;;;;;;;;;;5033972;28;20049;-90
2023/01/01 01:11:06;;;;;;;4.03;3.72;;;;;;;;;;5033610;28;20492;-90
2023/01/01 01:13:32;;;;;;;9.15;3.75;;;;;;;;;;5033561;28;20053;-90
2023/01/01 01:15:59;;;;;;;4.97;4.65;;;;;;;;;;5033597;28;20041;-90
2023/01/01 01:18:25;;;;;;;5.53;5.05;;;;;;;;;;5033921;28;20050;-90
2023/01/01 01:20:52;;;;;;;3.25;3.05;;;;;;;;;;5033502;28;20572;-89
2023/01/01 01:23:19;;;;;;;7.05;4.68;;;;;;;;;;5033539;28;20105;-89
2023/01/01 01:25:46;;;;;;;3.97;3.75;;;;;;;;;;5033386;28;20103;-89
2023/01/01 01:28:13;;;;;;;7.70;7.00;;;;;;;;;;5033535;28;20049;-90
2023/01/01 01:30:40;;;;;;;1.20;1.17;;;;;;;;;;5034014;28;20053;-91
2023/01/01 01:33:07;;;;;;;3.00;2.85;;;;;;;;;;5033096;28;20616;-89
2023/01/01 01:35:33;;;;;;;4.53;4.22;;;;;;;;;;5033315;28;20053;-90
2023/01/01 01:38:00;;;;;;;3.40;3.20;;;;;;;;;;5033686;28;20054;-89
2023/01/01 01:40:26;;;;;;;2.38;2.28;;;;;;;;;;5033379;28;20049;-89
2023/01/01 01:42:53;;;;;;;3.65;3.45;;;;;;;;;;5033390;28;20045;-89
2023/01/01 01:45:20;;;;;;;3.30;3.15;;;;;;;;;;5033246;28;20103;-89
2023/01/01 01:47:50;;;;;;;5.53;4.05;;;;;;;;;;5033253;28;20049;-89
2023/01/01 01:50:21;;;;;;;3.60;2.28;;;;;;;;;;5032993;28;20515;-89
2023/01/01 01:52:50;;;;;;;9.43;4.13;;;;;;;;;;5033421;28;20057;-90
2023/01/01 01:55:17;;;;;;;9.20;4.07;;;;;;;;;;5032952;28;20080;-90
2023/01/01 01:57:44;;;;;;;2.53;2.38;;;;;;;;;;5033168;28;20111;-89
2023/01/01 02:00:11;;;;;;;1.75;1.65;;;;;;;;;;5032372;28;20049;-90
2023/01/01 02:02:42;;;;;;;3.78;3.58;;;;;;;;;;5032738;28;20247;-89
2023/01/01 02:05:08;;;;;;;3.83;3.63;;;;;;;;;;5032722;28;20053;-90
2023/01/01 02:07:36;;;;;;;3.13;3.00;;;;;;;;;;5033111;28;20103;-90
2023/01/01 02:10:02;;;;;;;3.33;3.20;;;;;;;;;;5032915;28;20107;-90
2023/01/01 02:12:29;;;;;;;3.65;3.35;;;;;;;;;;5032903;28;20049;-89
2023/01/01 02:14:55;;;;;;;5.68;5.22;;;;;;;;;;5032936;28;20054;-90
2023/01/01 02:17:24;;;;;;;2.72;2.05;;;;;;;;;;5033039;28;20045;-90
2023/01/01 02:20:02;;;;;;;3.97;3.38;;;;;;;;;;5032379;28;20495;-89
2023/01/01 02:22:33;;;;;;;3.95;3.65;;;;;;;;;;5033043;28;20107;-90
2023/01/01 02:25:09;;;;;;;3.55;3.33;;;;;;;;;;5032570;28;20561;-90
2023/01/01 02:27:44;;;;;;;2.50;2.35;;;;;;;;;;5032590;28;20045;-90
2023/01/01 02:30:12;;;;;;;2.50;2.30;;;;;;;;;;5032953;28;20457;-90
2023/01/01 02:32:41;;;;;;;3.78;3.53;;;;;;;;;;5032871;28;20053;-89
2023/01/01 02:37:56;;;;;;;3.10;2.95;;;;;;;;;;5032826;28;20091;-90
2023/01/01 02:40:23;;;;;;;7.00;3.90;;;;;;;;;;5032756;28;20054;-90
2023/01/01 02:42:50;;;;;;;4.75;4.03;;;;;;;;;;5032662;28;20104;-90
2023/01/01 02:45:18;;;;;;;2.38;2.28;;;;;;;;;;5032401;28;20454;-90
2023/01/01 02:47:45;;;;;;;5.13;4.60;;;;;;;;;;5032839;28;20046;-90
2023/01/01 02:50:13;;;;;;;2.97;2.85;;;;;;;;;;5032382;28;20099;-90
2023/01/01 02:52:44;;;;;;;2.60;1.63;;;;;;;;;;5032438;28;20046;-90
2023/01/01 02:55:16;;;;;;;1.88;1.77;;;;;;;;;;5032308;28;20486;-90
2023/01/01 02:57:45;;;;;;;2.63;2.42;;;;;;;;;;5032463;28;20053;-90
2023/01/01 03:00:26;;;;;;;4.03;3.72;;;;;;;;;;5032837;28;20050;-90
2023/01/01 03:03:11;;;;;;;3.05;2.95;;;;;;;;;;5032533;28;20053;-89
2023/01/01 03:06:21;;;;;;;2.55;2.40;;;;;;;;;;5032608;28;20054;-90
2023/01/01 03:08:30;;;;;;;3.97;3.70;;;;;;;;;;5032449;28;20041;-90
2023/01/01 03:11:02;;;;;;;4.32;4.05;;;;;;;;;;5033888;28;20049;-90
2023/01/01 03:13:33;;;;;;;2.15;2.05;;;;;;;;;;5036076;28;20107;-90
2023/01/01 03:16:03;;;;;;;4.65;4.25;;;;;;;;;;5036095;28;20392;-91
2023/01/01 03:18:33;;;;;;;2.45;2.15;;;;;;;;;;5035903;28;20053;-90
2023/01/01 03:21:03;;;;;;;5.20;3.92;;;;;;;;;;5036081;28;20446;-90
2023/01/01 03:23:31;;;;;;;3.05;2.83;;;;;;;;;;5035818;28;20461;-90
2023/01/01 03:26:00;;;;;;;2.65;2.55;;;;;;;;;;5036071;28;20061;-90
2023/01/01 03:28:28;;;;;;;4.55;4.30;;;;;;;;;;5035860;28;20096;-90
2023/01/01 03:30:56;;;;;;;4.13;3.55;;;;;;;;;;5035691;28;20053;-90
2023/01/01 03:33:25;;;;;;;3.53;3.28;;;;;;;;;;5035449;28;20057;-90
2023/01/01 03:35:53;;;;;;;4.88;3.70;;;;;;;;;;5035682;28;20049;-90
2023/01/01 03:38:22;;;;;;;3.85;3.60;;;;;;;;;;5035780;28;20045;-90
2023/01/01 03:40:51;;;;;;;5.07;4.65;;;;;;;;;;5035603;28;20049;-90
2023/01/01 03:43:21;;;;;;;8.05;4.07;;;;;;;;;;5035799;28;20053;-90
2023/01/01 03:45:48;;;;;;;4.95;4.63;;;;;;;;;;5055643;28;20102;-90
2023/01/01 03:48:15;;;;;;;4.65;4.13;;;;;;;;;;5075522;28;20094;-90
2023/01/01 03:50:48;;;;;;;4.53;4.22;;;;;;;;;;5075579;28;20049;-90
2023/01/01 03:53:19;;;;;;;5.45;4.97;;;;;;;;;;5075593;28;20049;-90
2023/01/01 03:55:49;;;;;;;5.68;5.32;;;;;;;;;;5075771;28;20053;-90
2023/01/01 03:58:20;;;;;;;8.20;3.95;;;;;;;;;;5075362;28;20045;-90
2023/01/01 04:00:50;;;;;;;5.40;4.93;;;;;;;;;;5075209;28;20052;-90
2023/01/01 04:03:19;;;;;;;4.07;3.65;;;;;;;;;;5075417;28;20044;-88
2023/01/01 04:05:46;;;;;;;4.32;4.05;;;;;;;;;;5076163;28;20048;-88
2023/01/01 04:08:14;;;;;;;5.15;4.75;;;;;;;;;;5075344;28;20044;-87
2023/01/01 04:10:43;;;;;;;4.80;4.40;;;;;;;;;;5075103;28;20102;-88
2023/01/01 04:13:10;;;;;;;8.38;7.65;;;;;;;;;;5074946;28;20049;-88
2023/01/01 04:15:37;;;;;;;9.13;4.03;;;;;;;;;;5074773;28;20178;-87
2023/01/01 04:18:04;;;;;;;7.40;4.63;;;;;;;;;;5074717;28;20555;-88
2023/01/01 04:20:30;;;;;;;5.13;4.75;;;;;;;;;;5074626;28;20052;-87
2023/01/01 04:22:57;;;;;;;6.72;4.72;;;;;;;;;;5074239;28;20056;-87
2023/01/01 04:25:24;;;;;;;5.28;4.22;;;;;;;;;;5074986;28;20048;-88
2023/01/01 04:27:50;;;;;;;3.53;3.33;;;;;;;;;;5075026;28;20102;-88
2023/01/01 04:30:18;;;;;;;7.60;5.28;;;;;;;;;;5074453;28;20045;-88
2023/01/01 04:32:45;;;;;;;5.95;4.03;;;;;;;;;;5074633;28;20098;-87
2023/01/01 04:35:12;;;;;;;4.78;4.35;;;;;;;;;;5074685;28;20543;-88
2023/01/01 04:37:39;;;;;;;6.30;5.85;;;;;;;;;;5074320;28;20416;-87
2023/01/01 04:40:06;;;;;;;4.95;4.55;;;;;;;;;;5074215;28;20494;-87
2023/01/01 04:42:32;;;;;;;4.28;3.25;;;;;;;;;;5074794;28;20101;-87
2023/01/01 04:44:59;;;;;;;5.30;4.80;;;;;;;;;;5073946;28;20107;-88
2023/01/01 04:47:27;;;;;;;3.50;3.28;;;;;;;;;;5074128;28;20670;-87
2023/01/01 04:49:53;;;;;;;4.32;3.97;;;;;;;;;;5074132;28;20113;-88
2023/01/01 04:52:20;;;;;;;5.10;3.40;;;;;;;;;;5074249;28;20049;-87
2023/01/01 04:54:46;;;;;;;4.25;3.95;;;;;;;;;;5073830;28;20743;-89
2023/01/01 04:57:13;;;;;;;3.80;3.60;;;;;;;;;;5074127;28;20105;-89
2023/01/01 04:59:39;;;;;;;7.68;7.13;;;;;;;;;;5074124;28;20056;-90
2023/01/01 05:02:06;;;;;;;5.10;4.70;;;;;;;;;;5073964;28;20056;-90
2023/01/01 05:04:33;;;;;;;3.63;3.42;;;;;;;;;;5073690;28;20460;-90
2023/01/01 05:07:00;;;;;;;5.72;4.65;;;;;;;;;;5073735;28;20048;-90
2023/01/01 05:09:26;;;;;;;6.47;6.05;;;;;;;;;;5074438;28;20110;-90
2023/01/01 05:11:53;;;;;;;3.38;3.17;;;;;;;;;;5074377;28;20072;-89
2023/01/01 05:14:20;;;;;;;5.82;5.45;;;;;;;;;;5074321;28;20057;-89
2023/01/01 05:16:46;;;;;;;4.50;4.20;;;;;;;;;;5073980;28;20044;-90
2023/01/01 05:19:13;;;;;;;5.97;5.40;;;;;;;;;;5073726;28;20509;-90
2023/01/01 05:21:41;;;;;;;6.70;6.30;;;;;;;;;;5074011;28;20045;-90
2023/01/01 05:24:08;;;;;;;6.03;5.68;;;;;;;;;;5073797;28;20102;-90
2023/01/01 05:26:36;;;;;;;7.63;7.03;;;;;;;;;;5073743;28;20109;-90
2023/01/01 05:29:02;;;;;;;4.15;3.42;;;;;;;;;;5073568;28;20101;-90
2023/01/01 05:31:29;;;;;;;5.53;5.13;;;;;;;;;;5073367;28;20497;-90
2023/01/01 05:33:57;;;;;;;4.10;3.83;;;;;;;;;;5072290;28;20174;-90
2023/01/01 05:36:24;;;;;;;6.70;6.32;;;;;;;;;;5073633;28;20066;-89
2023/01/01 05:38:52;;;;;;;2.85;2.75;;;;;;;;;;5073425;28;20455;-90
2023/01/01 05:41:19;;;;;;;6.18;5.68;;;;;;;;;;5073743;28;20060;-90
2023/01/01 05:43:46;;;;;;;6.72;6.18;;;;;;;;;;5073595;28;20048;-90
2023/01/01 05:46:14;;;;;;;2.83;2.63;;;;;;;;;;5073286;28;20554;-90
2023/01/01 05:48:40;;;;;;;3.00;2.80;;;;;;;;;;5073415;28;20444;-89
2023/01/01 05:51:08;;;;;;;3.60;3.13;;;;;;;;;;5073354;28;20044;-89
2023/01/01 05:53:34;;;;;;;4.20;3.97;;;;;;;;;;5072955;28;20048;-89
2023/01/01 05:56:02;;;;;;;5.20;4.90;;;;;;;;;;5073235;28;20410;-89
2023/01/01 05:58:29;;;;;;;4.63;4.28;;;;;;;;;;5073179;28;20489;-90
2023/01/01 06:00:56;;;;;;;4.38;3.97;;;;;;;;;;5073382;28;20049;-90
2023/01/01 06:03:23;;;;;;;7.25;6.70;;;;;;;;;;5073296;28;20094;-90
2023/01/01 06:05:49;;;;;;;5.65;4.82;;;;;;;;;;5072841;28;20048;-88
2023/01/01 06:08:16;;;;;;;2.42;2.33;;;;;;;;;;5072941;28;20482;-87
2023/01/01 06:10:42;;;;;;;5.97;5.55;;;;;;;;;;5073153;28;20101;-90
2023/01/01 06:13:10;;;;;;;5.63;5.15;;;;;;;;;;5073009;28;20057;-90
2023/01/01 06:15:36;;;;;;;2.97;2.85;;;;;;;;;;5073103;28;20044;-89
2023/01/01 06:18:03;;;;;;;5.57;3.67;;;;;;;;;;5072990;28;20094;-90
2023/01/01 06:20:29;;;;;;;3.75;3.55;;;;;;;;;;5073030;28;20044;-90
2023/01/01 06:22:56;;;;;;;4.95;4.63;;;;;;;;;;5072507;28;20079;-89
2023/01/01 06:25:22;;;;;;;3.13;2.97;;;;;;;;;;5072783;28;20102;-90
2023/01/01 06:27:49;;;;;;;4.45;4.10;;;;;;;;;;5072913;28;20066;-89
2023/01/01 06:30:17;;;;;;;5.90;4.95;;;;;;;;;;5072428;28;20045;-89
2023/01/01 06:32:43;;;;;;;4.80;4.25;;;;;;;;;;5072865;28;20394;-90
2023/01/01 06:35:10;;;;;;;2.60;2.50;;;;;;;;;;5072770;28;20048;-89
2023/01/01 06:37:36;;;;;;;5.90;5.43;;;;;;;;;;5072364;28;20101;-89
2023/01/01 06:40:04;;;;;;;3.47;3.17;;;;;;;;;;5072427;28;20052;-90
2023/01/01 06:42:30;;;;;;;6.55;3.80;;;;;;;;;;5072490;28;20399;-90
2023/01/01 06:44:56;;;;;;;4.68;4.28;;;;;;;;;;5072653;28;20048;-89
2023/01/01 06:47:24;;;;;;;7.13;4.63;;;;;;;;;;5076705;28;20087;-87
2023/01/01 06:49:51;;;;;;;5.82;3.85;;;;;;;;;;5076446;28;20098;-88
2023/01/01 06:52:17;;;;;;;6.28;5.60;;;;;;;;;;5076243;28;20049;-88
2023/01/01 06:54:44;;;;;;;5.25;4.93;;;;;;;;;;5076177;28;20508;-88
2023/01/01 06:57:10;;;;;;;5.20;3.80;;;;;;;;;;5076437;28;20100;-91
2023/01/01 06:59:37;;;;;;;6.57;5.38;;;;;;;;;;5076221;28;20048;-91
2023/01/01 07:02:03;;;;;;;6.55;4.97;;;;;;;;;;5076037;28;20049;-88
2023/01/01 07:04:31;;;;;;;3.47;3.33;;;;;;;;;;5076015;28;20052;-88
2023/01/01 07:07:00;;;;;;;4.53;4.22;;;;;;;;;;5076331;28;20053;-87
2023/01/01 07:09:26;;;;;;;4.15;3.72;;;;;;;;;;5075815;28;20051;-88
2023/01/01 07:11:53;;;;;;;3.55;2.75;;;;;;;;;;5076254;28;20045;-87
2023/01/01 07:14:19;;;;;;;4.68;3.65;;;;;;;;;;5076138;28;20052;-87
2023/01/01 07:16:45;;;;;;;2.88;2.75;;;;;;;;;;5075597;28;20094;-89
2023/01/01 07:19:12;;;;;;;4.60;4.30;;;;;;;;;;5075428;28;20510;-88
2023/01/01 07:21:42;;;;;;;5.07;4.70;;;;;;;;;;5075587;28;20102;-88
2023/01/01 07:24:09;;;;;;;2.45;2.25;;;;;;;;;;5075477;28;20047;-88
2023/01/01 07:26:36;;;;;;;6.30;5.68;;;;;;;;;;5075414;28;20044;-88
2023/01/01 07:29:02;;;;;;;4.05;3.85;;;;;;;;;;5075479;28;20098;-88
2023/01/01 07:31:29;;;;;;;4.20;3.22;;;;;;;;;;5075535;28;20049;-88
2023/01/01 07:33:55;;;;;;;4.57;4.25;;;;;;;;;;5075050;28;20060;-88
2023/01/01 07:36:22;;;;;;;5.22;3.92;;;;;;;;;;5075435;28;20441;-88
2023/01/01 07:38:49;;;;;;;2.75;2.55;;;;;;;;;;5075319;28;20040;-88
2023/01/01 07:41:16;;;;;;;4.28;3.97;;;;;;;;;;5075240;28;20056;-88
2023/01/01 07:43:42;;;;;;;3.47;2.72;;;;;;;;;;5074971;28;20603;-88
2023/01/01 07:46:10;;;;;;;4.53;3.72;;;;;;;;;;5075338;28;20048;-88
2023/01/01 07:48:37;;;;;;;3.55;3.30;;;;;;;;;;5075194;28;20040;-89
2023/01/01 07:51:03;;;;;;;6.50;6.18;;;;;;;;;;5075421;28;20102;-89
2023/01/01 07:53:30;;;;;;;2.67;2.50;;;;;;;;;;5074974;28;20048;-88
2023/01/01 07:55:58;;;;;;;4.93;4.57;;;;;;;;;;5052788;28;20118;-89
2023/01/01 07:58:24;;;;;;;2.67;2.50;;;;;;;;;;5055007;28;20037;-88
2023/01/01 08:00:51;;;;;;;7.05;4.35;;;;;;;;;;5054807;28;20052;-89
2023/01/01 08:03:17;;;;;;;3.17;3.03;;;;;;;;;;5054892;28;20052;-88
2023/01/01 08:05:44;;;;;;;9.80;5.63;;;;;;;;;;5054744;28;20094;-89
2023/01/01 08:08:10;;;;;;;5.40;4.90;;;;;;;;;;5054506;28;20498;-89
2023/01/01 08:10:37;;;;;;;2.47;2.35;;;;;;;;;;5054510;28;20090;-89
2023/01/01 08:13:06;;;;;;;2.50;2.38;;;;;;;;;;5054852;28;20056;-89
2023/01/01 08:15:32;;;;;;;3.80;3.58;;;;;;;;;;5054396;28;20102;-89
2023/01/01 08:17:59;;;;;;;9.10;5.88;;;;;;;;;;5054298;28;20551;-89
2023/01/01 08:20:26;;;;;;;2.90;2.67;;;;;;;;;;5054702;28;20391;-89
2023/01/01 08:22:52;;;;;;;5.53;4.88;;;;;;;;;;5054163;28;20075;-88
2023/01/01 08:25:19;;;;;;;4.63;4.22;;;;;;;;;;5055123;28;20049;-89
2023/01/01 08:27:45;;;;;;;11.02;5.85;;;;;;;;;;5054427;28;20057;-89
2023/01/01 08:30:14;;;;;;;4.68;4.28;;;;;;;;;;5054148;28;20053;-89
2023/01/01 08:32:41;;;;;;;5.72;5.32;;;;;;;;;;5054266;28;20486;-89
2023/01/01 08:35:08;;;;;;;4.47;4.07;;;;;;;;;;5054458;28;20052;-89
2023/01/01 08:37:34;;;;;;;11.27;7.55;;;;;;;;;;5054155;28;20102;-89
2023/01/01 08:40:01;;;;;;;14.35;5.22;;;;;;;;;;5052693;28;20049;-89
2023/01/01 08:42:27;;;;;;;5.93;2.95;;;;;;;;;;5034597;28;20119;-89
2023/01/01 08:44:53;;;;;;;8.10;6.53;;;;;;;;;;5034259;28;20053;-90
2023/01/01 08:47:22;;;;;;;5.70;5.25;;;;;;;;;;5033846;28;20053;-89
2023/01/01 08:49:49;;;;;;;13.57;8.07;;;;;;;;;;5034426;28;20050;-89
2023/01/01 08:52:16;;;;;;;5.25;4.95;;;;;;;;;;5033954;28;20049;-89
2023/01/01 08:54:42;;;;;;;6.75;6.32;;;;;;;;;;5034049;28;20050;-88
2023/01/01 08:57:09;;;;;;;2.75;2.40;;;;;;;;;;5034031;28;20057;-89
2023/01/01 08:59:35;;;;;;;7.43;6.82;;;;;;;;;;5033478;28;20096;-89
2023/01/01 09:02:02;;;;;;;8.05;6.70;;;;;;;;;;5033586;28;20462;-88
2023/01/01 09:04:29;;;;;;;7.60;5.85;;;;;;;;;;5033628;28;20049;-89
2023/01/01 09:06:56;;;;;;;5.82;4.43;;;;;;;;;;5049461;28;20053;-89
2023/01/01 09:09:22;;;;;;;7.22;6.68;;;;;;;;;;5053062;28;20091;-89
2023/01/01 09:11:50;;;;;;;6.57;5.15;;;;;;;;;;5045882;28;20099;-88
2023/01/01 09:14:17;;;;;;;7.53;5.97;;;;;;;;;;5051196;28;20049;-88
2023/01/01 09:16:43;;;;;;;7.40;6.78;;;;;;;;;;5047291;28;20098;-89
2023/01/01 09:19:10;;;;;;;6.55;5.25;;;;;;;;;;5053464;28;20465;-88
2023/01/01 09:21:37;;;;;;;4.72;4.30;;;;;;;;;;5053175;28;20045;-89
2023/01/01 09:24:04;;;;;;;2.78;2.58;;;;;;;;;;5053442;28;20037;-89
2023/01/01 09:26:31;;;;;;;8.98;6.05;;;;;;;;;;5042376;28;20054;-88
2023/01/01 09:28:57;;;;;;;4.47;4.10;;;;;;;;;;5033316;28;20119;-88
2023/01/01 09:31:24;;;;;;;7.72;7.10;;;;;;;;;;5038843;28;20122;-89
2023/01/01 09:33:51;;;;;;;4.22;3.83;;;;;;;;;;5052906;28;20106;-88
2023/01/01 09:36:26;;;;;;;5.47;5.00;;;;;;;;;;5040463;28;20049;-88
2023/01/01 09:38:56;;;;;;;5.00;4.65;;;;;;;;;;5032998;28;20068;-88
2023/01/01 09:41:25;;;;;;;6.55;5.95;;;;;;;;;;5033320;28;20136;-88
2023/01/01 09:43:56;;;;;;;4.90;4.60;;;;;;;;;;5032881;28;20049;-89
2023/01/01 09:46:23;;;;;;;6.80;6.22;;;;;;;;;;5033145;28;20049;-88
2023/01/01 09:48:52;;;;;;;2.95;2.83;;;;;;;;;;5033095;28;20053;-88
2023/01/01 09:51:19;;;;;;;8.60;6.72;;;;;;;;;;5032921;28;20053;-88
2023/01/01 09:53:50;;;;;;;4.13;3.83;;;;;;;;;;5051808;28;20053;-87
2023/01/01 09:56:20;;;;;;;8.60;6.00;;;;;;;;;;5052976;28;20049;-86
2023/01/01 09:58:47;;;;;;;8.60;6.53;;;;;;;;;;5052322;28;20049;-86
2023/01/01 10:01:28;;;;;;;8.20;4.90;;;;;;;;;;5052592;28;20099;-88
2023/01/01 10:03:59;;;;;;;8.45;5.45;;;;;;;;;;5052045;28;20068;-88
2023/01/01 10:06:28;;;;;;;5.75;3.92;;;;;;;;;;5052143;28;20396;-87
2023/01/01 10:09:00;;;;;;;5.20;3.75;;;;;;;;;;5052009;28;20099;-87
2023/01/01 10:11:31;;;;;;;13.95;7.25;;;;;;;;;;5052059;28;20040;-87
2023/01/01 10:13:59;;;;;;;8.02;7.45;;;;;;;;;;5052255;28;20056;-87
2023/01/01 10:16:30;;;;;;;6.25;5.78;;;;;;;;;;5051943;28;20461;-87
2023/01/01 10:18:58;;;;;;;7.68;6.75;;;;;;;;;;5052338;28;20384;-87
2023/01/01 10:21:27;;;;;;;10.52;8.75;;;;;;;;;;5049515;28;20053;-87
2023/01/01 10:23:55;;;;;;;8.38;7.68;;;;;;;;;;5038450;28;20122;-87
2023/01/01 10:26:24;;;;;;;14.18;8.82;;;;;;;;;;5038691;28;20072;-88
2023/01/01 10:28:56;;;;;;;8.40;7.32;;;;;;;;;;5038697;28;20111;-87
2023/01/01 10:31:29;;;;;;;8.00;7.45;;;;;;;;;;5045146;28;20118;-87
2023/01/01 10:33:56;;;;;;;10.02;9.07;;;;;;;;;;5061347;28;20601;-88
2023/01/01 10:36:22;;;;;;;8.65;7.97;;;;;;;;;;5058152;28;20567;-88
2023/01/01 10:38:49;;;;;;;6.65;6.15;;;;;;;;;;5058145;28;20049;-87
2023/01/01 10:41:16;;;;;;;8.65;7.85;;;;;;;;;;5053938;28;20042;-88
2023/01/01 10:43:42;;;;;;;8.88;8.25;;;;;;;;;;5038752;28;20050;-87
2023/01/01 10:46:12;;;;;;;12.23;9.55;;;;;;;;;;5042356;28;20045;-88
2023/01/01 10:48:39;;;;;;;8.18;6.38;;;;;;;;;;5058859;28;20045;-88
2023/01/01 10:51:07;;;;;;;13.70;9.85;;;;;;;;;;5055526;28;20072;-87
2023/01/01 10:53:35;;;;;;;10.35;9.27;;;;;;;;;;5038452;28;20502;-87
2023/01/01 10:56:03;;;;;;;6.72;6.18;;;;;;;;;;5040630;28;20106;-87
2023/01/01 10:58:35;;;;;;;8.77;7.97;;;;;;;;;;5058429;28;20091;-87
2023/01/01 11:01:02;;;;;;;8.23;7.45;;;;;;;;;;5056662;28;20060;-88
2023/01/01 11:03:30;;;;;;;7.57;5.90;;;;;;;;;;5038368;28;20477;-87
2023/01/01 11:06:01;;;;;;;14.95;10.15;;;;;;;;;;5039191;28;20072;-88
2023/01/01 11:08:28;;;;;;;15.55;9.98;;;;;;;;;;5058242;28;20713;-87
2023/01/01 11:10:56;;;;;;;7.60;7.00;;;;;;;;;;5058404;28;20057;-88
2023/01/01 11:13:22;;;;;;;15.55;8.23;;;;;;;;;;5038577;28;20053;-87
2023/01/01 11:15:49;;;;;;;8.48;7.88;;;;;;;;;;5038857;28;20099;-88
2023/01/01 11:18:16;;;;;;;8.35;5.60;;;;;;;;;;5057787;28;20053;-87
2023/01/01 11:20:50;;;;;;;9.38;8.50;;;;;;;;;;5058463;28;20060;-87
2023/01/01 11:23:18;;;;;;;6.68;6.05;;;;;;;;;;5038556;28;20053;-87
2023/01/01 11:25:56;;;;;;;10.00;6.05;;;;;;;;;;5038286;28;20045;-87
2023/01/01 11:28:22;;;;;;;6.32;4.30;;;;;;;;;;5038147;28;20387;-87
2023/01/01 11:30:58;;;;;;;7.38;6.40;;;;;;;;;;5038346;28;20057;-87
2023/01/01 11:33:26;;;;;;;10.38;9.02;;;;;;;;;;5034875;28;20046;-87
2023/01/01 11:35:55;;;;;;;5.15;4.70;;;;;;;;;;5035253;28;20119;-88
2023/01/01 11:38:22;;;;;;;5.32;4.75;;;;;;;;;;5035233;28;20469;-87
2023/01/01 11:40:51;;;;;;;5.90;5.40;;;;;;;;;;5037039;28;20091;-86
2023/01/01 11:43:20;;;;;;;5.97;5.57;;;;;;;;;;5053757;28;20053;-87
2023/01/01 11:45:47;;;;;;;6.50;6.10;;;;;;;;;;5054984;28;20106;-87
2023/01/01 11:48:15;;;;;;;6.03;5.13;;;;;;;;;;5054785;28;20045;-87
2023/01/01 11:50:48;;;;;;;6.25;5.65;;;;;;;;;;5054767;28;20457;-87
2023/01/01 11:53:26;;;;;;;6.85;6.22;;;;;;;;;;5054404;28;20482;-87
2023/01/01 11:55:55;;;;;;;7.03;4.68;;;;;;;;;;5054546;28;20057;-88
2023/01/01 11:58:23;;;;;;;5.22;4.72;;;;;;;;;;5055029;28;20087;-87
2023/01/01 12:00:51;;;;;;;4.60;4.30;;;;;;;;;;5054741;28;20110;-87
2023/01/01 12:03:21;;;;;;;5.95;5.45;;;;;;;;;;5037441;28;20049;-87
2023/01/01 12:05:49;;;;;;;3.72;3.42;;;;;;;;;;5034374;28;20488;-87
2023/01/01 12:08:19;;;;;;;10.43;6.03;;;;;;;;;;5051377;28;20049;-87
2023/01/01 12:10:51;;;;;;;4.68;4.28;;;;;;;;;;5054694;28;20049;-87
2023/01/01 12:13:18;;;;;;;4.95;4.55;;;;;;;;;;5054417;28;20049;-87
2023/01/01 12:15:48;;;;;;;5.07;3.90;;;;;;;;;;5054568;28;20124;-87
2023/01/01 12:18:19;;;;;;;6.57;6.05;;;;;;;;;;5054483;28;20098;-87
2023/01/01 12:20:45;;;;;;;;;;;;;;;;;;5054885;28;20075;-87
2023/01/01 12:23:12;;;;;;;4.97;4.43;;;;;;;;;;5054138;28;19925;-89
2023/01/01 12:25:40;;;;;;;3.85;3.65;;;;;;;;;;5054074;28;20048;-87
2023/01/01 12:28:13;;;;;;;3.67;3.47;;;;;;;;;;5054188;28;20134;-87
2023/01/01 12:30:43;;;;;;;4.68;3.40;;;;;;;;;;5054369;28;20095;-87
2023/01/01 12:33:26;;;;;;;3.38;3.13;;;;;;;;;;5053726;28;20118;-87
2023/01/01 12:35:58;;;;;;;7.40;4.43;;;;;;;;;;5054035;28;20099;-87
2023/01/01 12:38:32;;;;;;;7.75;4.72;;;;;;;;;;5037287;28;20049;-87
2023/01/01 12:41:05;;;;;;;3.67;3.47;;;;;;;;;;5033798;28;20095;-87
2023/01/01 12:43:37;;;;;;;8.68;5.85;;;;;;;;;;5033675;28;20108;-87
2023/01/01 12:46:15;;;;;;;3.85;3.17;;;;;;;;;;5033752;28;20053;-87
2023/01/01 12:48:56;;;;;;;3.95;3.65;;;;;;;;;;5034070;28;20053;-87
2023/01/01 12:51:30;;;;;;;6.03;5.63;;;;;;;;;;5032529;28;20049;-87
2023/01/01 12:54:00;;;;;;;5.95;5.63;;;;;;;;;;5033552;28;20053;-90
2023/01/01 12:56:30;;;;;;;6.43;4.25;;;;;;;;;;5033549;28;20553;-87
2023/01/01 12:59:00;;;;;;;3.95;3.65;;;;;;;;;;5033436;28;20054;-87
2023/01/01 13:01:27;;;;;;;7.80;7.20;;;;;;;;;;5033396;28;20558;-87
2023/01/01 13:03:55;;;;;;;5.97;5.28;;;;;;;;;;5033258;28;20046;-88
2023/01/01 13:06:24;;;;;;;7.07;6.68;;;;;;;;;;5033735;28;20053;-87
2023/01/01 13:08:51;;;;;;;7.18;6.55;;;;;;;;;;5033777;28;20049;-88
2023/01/01 13:11:18;;;;;;;6.65;6.32;;;;;;;;;;5033665;28;20041;-87
2023/01/01 13:13:44;;;;;;;5.32;4.90;;;;;;;;;;5033351;28;20392;-87
2023/01/01 13:16:12;;;;;;;6.00;5.60;;;;;;;;;;5033547;28;20108;-87
2023/01/01 13:18:39;;;;;;;4.95;4.57;;;;;;;;;;5048952;28;20372;-87
2023/01/01 13:21:07;;;;;;;8.38;7.88;;;;;;;;;;5053019;28;20110;-87
2023/01/01 13:23:53;;;;;;;5.72;5.35;;;;;;;;;;5052807;28;20132;-87
2023/01/01 13:26:32;;;;;;;6.57;5.93;;;;;;;;;;5053075;28;20486;-88
2023/01/01 13:29:17;;;;;;;8.77;8.10;;;;;;;;;;5034722;28;20058;-87
2023/01/01 13:32:01;;;;;;;7.30;6.72;;;;;;;;;;5029562;28;20438;-87
2023/01/01 13:34:39;;;;;;;8.23;7.57;;;;;;;;;;5033036;28;20049;-88
2023/01/01 13:37:24;;;;;;;7.82;7.20;;;;;;;;;;5034966;28;20127;-87
2023/01/01 13:39:51;;;;;;;5.93;5.47;;;;;;;;;;5052602;28;20041;-87
2023/01/01 13:42:32;;;;;;;7.03;6.45;;;;;;;;;;5052895;28;20041;-87
2023/01/01 13:44:59;;;;;;;8.80;7.90;;;;;;;;;;5052211;28;20099;-87
2023/01/01 13:47:30;;;;;;;19.02;6.35;;;;;;;;;;5048382;28;20078;-87
2023/01/01 13:50:04;;;;;;;8.07;6.38;;;;;;;;;;5046759;28;20037;-88
2023/01/01 13:52:43;;;;;;;8.18;7.50;;;;;;;;;;5052684;28;20126;-87
2023/01/01 13:55:34;;;;;;;10.40;9.43;;;;;;;;;;5051782;28;20052;-87
2023/01/01 13:58:08;;;;;;;9.10;8.40;;;;;;;;;;5052568;28;20115;-87
2023/01/01 14:00:40;;;;;;;10.07;9.18;;;;;;;;;;5052049;28;20095;-86
2023/01/01 14:03:11;;;;;;;10.07;6.35;;;;;;;;;;5052634;28;20103;-87
2023/01/01 14:05:39;;;;;;;9.93;9.20;;;;;;;;;;5052299;28;20057;-87
2023/01/01 14:08:06;;;;;;;8.80;7.50;;;;;;;;;;5052200;28;20045;-87
2023/01/01 14:10:34;;;;;;;8.93;8.23;;;;;;;;;;5052343;28;20049;-88
2023/01/01 14:13:13;;;;;;;8.57;7.75;;;;;;;;;;5052189;28;20581;-87
2023/01/01 14:15:41;;;;;;;8.30;7.70;;;;;;;;;;5052729;28;20107;-87
2023/01/01 14:18:12;;;;;;;7.90;7.20;;;;;;;;;;5052517;28;20049;-87
2023/01/01 14:20:41;;;;;;;5.35;4.93;;;;;;;;;;5052345;28;20371;-87
2023/01/01 14:23:10;;;;;;;6.65;5.97;;;;;;;;;;5051907;28;20490;-87
2023/01/01 14:25:37;;;;;;;8.93;7.78;;;;;;;;;;5052453;28;20052;-87
2023/01/01 14:28:04;;;;;;;13.93;10.23;;;;;;;;;;5046000;28;20042;-87
2023/01/01 14:30:31;;;;;;;10.05;8.73;;;;;;;;;;5052288;28;20162;-87
2023/01/01 14:32:59;;;;;;;6.53;5.90;;;;;;;;;;5052071;28;20049;-87
2023/01/01 14:35:27;;;;;;;6.78;6.30;;;;;;;;;;5051875;28;20061;-87
2023/01/01 14:37:54;;;;;;;8.63;7.93;;;;;;;;;;5052100;28;20057;-87
2023/01/01 14:40:26;;;;;;;9.23;8.63;;;;;;;;;;5051762;28;20049;-87
2023/01/01 14:42:56;;;;;;;9.65;8.32;;;;;;;;;;5051897;28;20052;-87
2023/01/01 14:45:23;;;;;;;7.75;7.22;;;;;;;;;;5051876;28;20053;-87
2023/01/01 14:47:51;;;;;;;7.68;6.95;;;;;;;;;;5051770;28;20045;-87
2023/01/01 14:50:20;;;;;;;7.20;6.78;;;;;;;;;;5052092;28;20406;-87
2023/01/01 14:52:50;;;;;;;8.73;8.10;;;;;;;;;;5051878;28;20479;-87
2023/01/01 14:55:18;;;;;;;9.20;8.27;;;;;;;;;;5051766;28;20049;-87
2023/01/01 14:57:46;;;;;;;6.47;5.88;;;;;;;;;;5032834;28;20046;-87